sensor_id;sensor_type;location;lat;lon;timestamp;P1;durP1;ratioP1;P2;durP2;ratioP2
41514;SDS011;27247;48.020;16.720;2023-02-03T00:01:33;6.25;;;3.55;;
41514;SDS011;27247;48.020;16.720;2023-02-03T00:05:44;8.13;;;3.80;;
41514;SDS011;27247;48.020;16.720;2023-02-03T00:09:56;8.35;;;3.80;;
41514;SDS011;27247;48.020;16.720;2023-02-03T00:14:06;7.88;;;3.47;;
41514;SDS011;27247;48.020;16.720;2023-02-03T00:18:17;7.45;;;3.58;;
41514;SDS011;27247;48.020;16.720;2023-02-03T00:22:27;8.30;;;3.50;;
41514;SDS011;27247;48.020;16.720;2023-02-03T00:26:41;8.43;;;4.00;;
41514;SDS011;27247;48.020;16.720;2023-02-03T00:30:52;8.73;;;3.70;;
41514;SDS011;27247;48.020;16.720;2023-02-03T00:35:03;6.80;;;3.65;;
41514;SDS011;27247;48.020;16.720;2023-02-03T00:39:14;10.95;;;4.20;;
41514;SDS011;27247;48.020;16.720;2023-02-03T00:43:25;6.70;;;3.75;;
41514;SDS011;27247;48.020;16.720;2023-02-03T00:47:35;5.07;;;3.75;;
41514;SDS011;27247;48.020;16.720;2023-02-03T00:51:46;11.05;;;3.72;;
41514;SDS011;27247;48.020;16.720;2023-02-03T00:55:56;8.45;;;3.47;;
41514;SDS011;27247;48.020;16.720;2023-02-03T01:00:06;9.23;;;4.15;;
41514;SDS011;27247;48.020;16.720;2023-02-03T01:04:17;7.88;;;4.22;;
41514;SDS011;27247;48.020;16.720;2023-02-03T01:08:28;5.38;;;4.45;;
41514;SDS011;27247;48.020;16.720;2023-02-03T01:12:41;8.55;;;4.18;;
41514;SDS011;27247;48.020;16.720;2023-02-03T01:16:51;10.07;;;4.50;;
41514;SDS011;27247;48.020;16.720;2023-02-03T01:21:08;6.57;;;4.53;;
41514;SDS011;27247;48.020;16.720;2023-02-03T01:25:21;6.65;;;4.65;;
41514;SDS011;27247;48.020;16.720;2023-02-03T01:29:31;9.73;;;4.85;;
41514;SDS011;27247;48.020;16.720;2023-02-03T01:33:41;7.75;;;4.60;;
41514;SDS011;27247;48.020;16.720;2023-02-03T01:37:55;9.52;;;4.90;;
41514;SDS011;27247;48.020;16.720;2023-02-03T01:42:07;6.03;;;4.75;;
41514;SDS011;27247;48.020;16.720;2023-02-03T01:50:34;9.45;;;4.78;;
41514;SDS011;27247;48.020;16.720;2023-02-03T01:54:46;9.45;;;5.80;;
41514;SDS011;27247;48.020;16.720;2023-02-03T01:58:59;11.75;;;5.40;;
41514;SDS011;27247;48.020;16.720;2023-02-03T02:03:10;9.40;;;6.15;;
41514;SDS011;27247;48.020;16.720;2023-02-03T02:07:20;9.60;;;5.55;;
41514;SDS011;27247;48.020;16.720;2023-02-03T02:11:32;11.55;;;5.78;;
41514;SDS011;27247;48.020;16.720;2023-02-03T02:33:35;10.27;;;5.30;;
41514;SDS011;27247;48.020;16.720;2023-02-03T02:46:42;10.20;;;5.03;;
41514;SDS011;27247;48.020;16.720;2023-02-03T02:50:57;8.20;;;5.07;;
41514;SDS011;27247;48.020;16.720;2023-02-03T02:55:16;10.60;;;5.45;;
41514;SDS011;27247;48.020;16.720;2023-02-03T02:59:33;6.88;;;4.47;;
41514;SDS011;27247;48.020;16.720;2023-02-03T03:03:44;9.30;;;5.20;;
41514;SDS011;27247;48.020;16.720;2023-02-03T03:07:55;9.32;;;4.95;;
41514;SDS011;27247;48.020;16.720;2023-02-03T03:12:25;6.95;;;4.35;;
41514;SDS011;27247;48.020;16.720;2023-02-03T03:16:46;7.90;;;4.80;;
41514;SDS011;27247;48.020;16.720;2023-02-03T03:21:02;5.80;;;3.92;;
41514;SDS011;27247;48.020;16.720;2023-02-03T03:25:16;5.15;;;3.85;;
41514;SDS011;27247;48.020;16.720;2023-02-03T03:29:31;7.20;;;3.65;;
41514;SDS011;27247;48.020;16.720;2023-02-03T03:33:47;8.60;;;3.78;;
41514;SDS011;27247;48.020;16.720;2023-02-03T03:37:59;3.80;;;2.47;;
41514;SDS011;27247;48.020;16.720;2023-02-03T03:46:54;3.90;;;2.63;;
41514;SDS011;27247;48.020;16.720;2023-02-03T03:51:18;4.78;;;2.53;;
41514;SDS011;27247;48.020;16.720;2023-02-03T03:55:33;6.30;;;2.30;;
41514;SDS011;27247;48.020;16.720;2023-02-03T03:59:46;4.32;;;2.15;;
41514;SDS011;27247;48.020;16.720;2023-02-03T04:03:59;5.28;;;2.40;;
41514;SDS011;27247;48.020;16.720;2023-02-03T04:08:14;3.75;;;2.42;;
41514;SDS011;27247;48.020;16.720;2023-02-03T04:12:25;3.40;;;2.00;;
41514;SDS011;27247;48.020;16.720;2023-02-03T04:16:35;5.57;;;2.22;;
41514;SDS011;27247;48.020;16.720;2023-02-03T04:20:46;4.47;;;2.08;;
41514;SDS011;27247;48.020;16.720;2023-02-03T04:24:56;4.35;;;2.10;;
41514;SDS011;27247;48.020;16.720;2023-02-03T04:29:09;3.92;;;2.33;;
41514;SDS011;27247;48.020;16.720;2023-02-03T04:33:20;3.65;;;1.95;;
41514;SDS011;27247;48.020;16.720;2023-02-03T04:37:30;3.97;;;1.60;;
41514;SDS011;27247;48.020;16.720;2023-02-03T04:41:41;6.43;;;2.08;;
41514;SDS011;27247;48.020;16.720;2023-02-03T04:45:51;2.70;;;1.58;;
41514;SDS011;27247;48.020;16.720;2023-02-03T04:50:01;8.68;;;4.57;;
41514;SDS011;27247;48.020;16.720;2023-02-03T04:54:12;3.72;;;2.45;;
41514;SDS011;27247;48.020;16.720;2023-02-03T04:58:22;6.82;;;3.67;;
41514;SDS011;27247;48.020;16.720;2023-02-03T05:02:33;3.50;;;2.63;;
41514;SDS011;27247;48.020;16.720;2023-02-03T05:06:44;3.38;;;1.85;;
41514;SDS011;27247;48.020;16.720;2023-02-03T05:10:54;5.10;;;1.90;;
41514;SDS011;27247;48.020;16.720;2023-02-03T05:15:04;6.63;;;2.35;;
41514;SDS011;27247;48.020;16.720;2023-02-03T05:19:15;5.45;;;2.00;;
41514;SDS011;27247;48.020;16.720;2023-02-03T05:23:25;1.88;;;1.35;;
41514;SDS011;27247;48.020;16.720;2023-02-03T05:27:37;2.88;;;1.00;;
41514;SDS011;27247;48.020;16.720;2023-02-03T05:31:48;1.58;;;0.75;;
41514;SDS011;27247;48.020;16.720;2023-02-03T05:35:58;1.92;;;0.80;;
41514;SDS011;27247;48.020;16.720;2023-02-03T05:40:09;2.00;;;1.02;;
41514;SDS011;27247;48.020;16.720;2023-02-03T05:44:38;2.47;;;1.20;;
41514;SDS011;27247;48.020;16.720;2023-02-03T05:48:48;3.10;;;1.00;;
41514;SDS011;27247;48.020;16.720;2023-02-03T05:52:59;1.30;;;1.05;;
41514;SDS011;27247;48.020;16.720;2023-02-03T05:57:10;4.28;;;1.50;;
41514;SDS011;27247;48.020;16.720;2023-02-03T06:01:22;1.75;;;1.40;;
41514;SDS011;27247;48.020;16.720;2023-02-03T06:05:33;2.95;;;1.63;;
41514;SDS011;27247;48.020;16.720;2023-02-03T06:09:46;3.10;;;1.35;;
41514;SDS011;27247;48.020;16.720;2023-02-03T06:13:58;3.92;;;1.55;;
41514;SDS011;27247;48.020;16.720;2023-02-03T06:18:09;2.75;;;1.50;;
41514;SDS011;27247;48.020;16.720;2023-02-03T06:22:19;3.00;;;1.50;;
41514;SDS011;27247;48.020;16.720;2023-02-03T06:26:30;4.28;;;1.85;;
41514;SDS011;27247;48.020;16.720;2023-02-03T06:30:40;3.70;;;1.80;;
41514;SDS011;27247;48.020;16.720;2023-02-03T06:34:51;6.32;;;2.47;;
41514;SDS011;27247;48.020;16.720;2023-02-03T06:39:01;3.00;;;1.90;;
41514;SDS011;27247;48.020;16.720;2023-02-03T06:43:11;2.40;;;1.83;;
41514;SDS011;27247;48.020;16.720;2023-02-03T06:47:22;4.03;;;2.13;;
41514;SDS011;27247;48.020;16.720;2023-02-03T06:51:32;5.47;;;2.22;;
41514;SDS011;27247;48.020;16.720;2023-02-03T06:55:43;11.23;;;3.83;;
41514;SDS011;27247;48.020;16.720;2023-02-03T06:59:53;1.92;;;1.70;;
41514;SDS011;27247;48.020;16.720;2023-02-03T07:04:04;1.48;;;1.20;;
41514;SDS011;27247;48.020;16.720;2023-02-03T07:08:15;1.73;;;0.73;;
41514;SDS011;27247;48.020;16.720;2023-02-03T07:12:25;1.83;;;1.40;;
41514;SDS011;27247;48.020;16.720;2023-02-03T07:16:36;4.30;;;1.20;;
41514;SDS011;27247;48.020;16.720;2023-02-03T07:20:46;1.70;;;1.10;;
41514;SDS011;27247;48.020;16.720;2023-02-03T07:24:56;2.15;;;1.10;;
41514;SDS011;27247;48.020;16.720;2023-02-03T07:29:07;2.10;;;0.67;;
41514;SDS011;27247;48.020;16.720;2023-02-03T07:33:17;3.58;;;1.80;;
41514;SDS011;27247;48.020;16.720;2023-02-03T07:37:27;1.25;;;0.77;;
41514;SDS011;27247;48.020;16.720;2023-02-03T07:41:38;1.40;;;0.90;;
41514;SDS011;27247;48.020;16.720;2023-02-03T07:45:49;1.00;;;0.90;;
41514;SDS011;27247;48.020;16.720;2023-02-03T07:49:59;2.88;;;1.30;;
41514;SDS011;27247;48.020;16.720;2023-02-03T07:54:10;3.65;;;1.20;;
41514;SDS011;27247;48.020;16.720;2023-02-03T07:58:20;10.30;;;2.63;;
41514;SDS011;27247;48.020;16.720;2023-02-03T08:02:31;2.78;;;1.73;;
41514;SDS011;27247;48.020;16.720;2023-02-03T08:06:42;6.25;;;1.98;;
41514;SDS011;27247;48.020;16.720;2023-02-03T08:10:54;4.07;;;2.22;;
41514;SDS011;27247;48.020;16.720;2023-02-03T08:15:05;4.40;;;2.10;;
41514;SDS011;27247;48.020;16.720;2023-02-03T08:19:16;3.97;;;1.98;;
41514;SDS011;27247;48.020;16.720;2023-02-03T08:23:26;5.10;;;2.38;;
41514;SDS011;27247;48.020;16.720;2023-02-03T08:27:37;9.88;;;3.25;;
41514;SDS011;27247;48.020;16.720;2023-02-03T08:31:47;16.58;;;7.28;;
41514;SDS011;27247;48.020;16.720;2023-02-03T08:35:58;17.70;;;6.63;;
41514;SDS011;27247;48.020;16.720;2023-02-03T08:40:11;12.73;;;5.43;;
41514;SDS011;27247;48.020;16.720;2023-02-03T08:44:21;2.42;;;1.85;;
41514;SDS011;27247;48.020;16.720;2023-02-03T08:48:32;2.75;;;1.33;;
41514;SDS011;27247;48.020;16.720;2023-02-03T08:52:42;4.22;;;1.58;;
41514;SDS011;27247;48.020;16.720;2023-02-03T08:56:53;3.42;;;1.20;;
41514;SDS011;27247;48.020;16.720;2023-02-03T09:01:11;3.03;;;1.38;;
41514;SDS011;27247;48.020;16.720;2023-02-03T09:05:23;3.53;;;2.15;;
41514;SDS011;27247;48.020;16.720;2023-02-03T09:09:33;1.35;;;1.05;;
41514;SDS011;27247;48.020;16.720;2023-02-03T09:13:44;1.60;;;1.20;;
41514;SDS011;27247;48.020;16.720;2023-02-03T09:17:54;1.60;;;1.30;;
41514;SDS011;27247;48.020;16.720;2023-02-03T09:22:06;3.05;;;1.65;;
41514;SDS011;27247;48.020;16.720;2023-02-03T09:26:17;2.83;;;1.08;;
41514;SDS011;27247;48.020;16.720;2023-02-03T09:30:27;5.57;;;1.63;;
41514;SDS011;27247;48.020;16.720;2023-02-03T09:34:38;2.75;;;1.67;;
41514;SDS011;27247;48.020;16.720;2023-02-03T09:38:51;2.80;;;1.70;;
41514;SDS011;27247;48.020;16.720;2023-02-03T09:47:49;2.55;;;1.40;;
41514;SDS011;27247;48.020;16.720;2023-02-03T10:00:40;3.33;;;0.93;;
41514;SDS011;27247;48.020;16.720;2023-02-03T10:09:44;1.75;;;0.90;;
41514;SDS011;27247;48.020;16.720;2023-02-03T10:18:32;0.70;;;0.70;;
41514;SDS011;27247;48.020;16.720;2023-02-03T10:22:53;1.88;;;1.27;;
41514;SDS011;27247;48.020;16.720;2023-02-03T10:27:28;2.60;;;0.95;;
41514;SDS011;27247;48.020;16.720;2023-02-03T10:31:39;2.95;;;0.60;;
41514;SDS011;27247;48.020;16.720;2023-02-03T10:35:52;1.02;;;0.50;;
41514;SDS011;27247;48.020;16.720;2023-02-03T10:40:20;1.45;;;0.73;;
41514;SDS011;27247;48.020;16.720;2023-02-03T10:48:51;2.15;;;0.65;;
41514;SDS011;27247;48.020;16.720;2023-02-03T10:53:18;5.32;;;1.35;;
41514;SDS011;27247;48.020;16.720;2023-02-03T10:57:34;2.58;;;1.35;;
41514;SDS011;27247;48.020;16.720;2023-02-03T11:01:48;2.25;;;0.60;;
41514;SDS011;27247;48.020;16.720;2023-02-03T11:06:17;1.73;;;0.88;;
41514;SDS011;27247;48.020;16.720;2023-02-03T11:14:49;3.05;;;1.73;;
41514;SDS011;27247;48.020;16.720;2023-02-03T11:19:02;1.33;;;1.20;;
41514;SDS011;27247;48.020;16.720;2023-02-03T11:23:14;4.03;;;1.75;;
41514;SDS011;27247;48.020;16.720;2023-02-03T11:27:29;2.15;;;1.50;;
41514;SDS011;27247;48.020;16.720;2023-02-03T11:31:43;4.43;;;1.33;;
41514;SDS011;27247;48.020;16.720;2023-02-03T11:35:57;2.92;;;1.65;;
41514;SDS011;27247;48.020;16.720;2023-02-03T11:44:24;1.33;;;0.95;;
41514;SDS011;27247;48.020;16.720;2023-02-03T11:48:40;0.95;;;0.60;;
41514;SDS011;27247;48.020;16.720;2023-02-03T11:53:09;2.15;;;0.73;;
41514;SDS011;27247;48.020;16.720;2023-02-03T11:57:37;0.80;;;0.77;;
41514;SDS011;27247;48.020;16.720;2023-02-03T12:02:01;1.52;;;1.05;;
41514;SDS011;27247;48.020;16.720;2023-02-03T12:15:50;3.90;;;1.25;;
41514;SDS011;27247;48.020;16.720;2023-02-03T12:29:45;3.95;;;1.25;;
41514;SDS011;27247;48.020;16.720;2023-02-03T12:34:11;1.08;;;0.60;;
41514;SDS011;27247;48.020;16.720;2023-02-03T12:43:17;3.27;;;1.60;;
41514;SDS011;27247;48.020;16.720;2023-02-03T12:47:46;0.57;;;0.50;;
41514;SDS011;27247;48.020;16.720;2023-02-03T12:56:24;0.98;;;0.57;;
41514;SDS011;27247;48.020;16.720;2023-02-03T13:04:59;0.55;;;0.40;;
41514;SDS011;27247;48.020;16.720;2023-02-03T13:09:30;0.95;;;0.60;;
41514;SDS011;27247;48.020;16.720;2023-02-03T13:13:55;1.23;;;0.40;;
41514;SDS011;27247;48.020;16.720;2023-02-03T13:22:46;2.65;;;0.77;;
41514;SDS011;27247;48.020;16.720;2023-02-03T13:35:48;5.85;;;2.92;;
41514;SDS011;27247;48.020;16.720;2023-02-03T13:40:06;0.30;;;0.30;;
41514;SDS011;27247;48.020;16.720;2023-02-03T13:44:24;1.17;;;0.50;;
41514;SDS011;27247;48.020;16.720;2023-02-03T13:48:37;0.40;;;0.40;;
41514;SDS011;27247;48.020;16.720;2023-02-03T13:52:58;0.40;;;0.40;;
41514;SDS011;27247;48.020;16.720;2023-02-03T13:57:23;0.60;;;0.45;;
41514;SDS011;27247;48.020;16.720;2023-02-03T14:01:46;1.55;;;0.73;;
41514;SDS011;27247;48.020;16.720;2023-02-03T14:05:57;2.28;;;1.02;;
41514;SDS011;27247;48.020;16.720;2023-02-03T14:18:34;1.77;;;0.80;;
41514;SDS011;27247;48.020;16.720;2023-02-03T14:31:26;2.78;;;1.08;;
41514;SDS011;27247;48.020;16.720;2023-02-03T14:35:38;3.25;;;0.95;;
41514;SDS011;27247;48.020;16.720;2023-02-03T14:44:45;2.58;;;1.80;;
41514;SDS011;27247;48.020;16.720;2023-02-03T14:58:12;2.00;;;0.80;;
41514;SDS011;27247;48.020;16.720;2023-02-03T15:07:36;1.55;;;0.70;;
41514;SDS011;27247;48.020;16.720;2023-02-03T15:11:55;1.60;;;0.80;;
41514;SDS011;27247;48.020;16.720;2023-02-03T15:16:09;1.95;;;0.80;;
41514;SDS011;27247;48.020;16.720;2023-02-03T15:20:25;4.00;;;1.40;;
41514;SDS011;27247;48.020;16.720;2023-02-03T15:24:40;2.38;;;1.42;;
41514;SDS011;27247;48.020;16.720;2023-02-03T15:28:55;2.13;;;1.20;;
41514;SDS011;27247;48.020;16.720;2023-02-03T15:33:13;3.08;;;1.25;;
41514;SDS011;27247;48.020;16.720;2023-02-03T15:41:36;7.27;;;3.23;;
41514;SDS011;27247;48.020;16.720;2023-02-03T15:46:08;1.52;;;0.88;;
41514;SDS011;27247;48.020;16.720;2023-02-03T15:50:32;2.63;;;1.52;;
41514;SDS011;27247;48.020;16.720;2023-02-03T15:54:49;2.72;;;1.13;;
41514;SDS011;27247;48.020;16.720;2023-02-03T15:59:05;2.95;;;1.70;;
41514;SDS011;27247;48.020;16.720;2023-02-03T16:03:37;2.80;;;1.33;;
41514;SDS011;27247;48.020;16.720;2023-02-03T16:07:50;3.80;;;1.50;;
41514;SDS011;27247;48.020;16.720;2023-02-03T16:12:02;3.75;;;0.85;;
41514;SDS011;27247;48.020;16.720;2023-02-03T16:16:42;2.08;;;1.35;;
41514;SDS011;27247;48.020;16.720;2023-02-03T16:21:03;2.78;;;1.00;;
41514;SDS011;27247;48.020;16.720;2023-02-03T16:25:18;1.98;;;0.82;;
41514;SDS011;27247;48.020;16.720;2023-02-03T16:29:34;1.30;;;0.90;;
41514;SDS011;27247;48.020;16.720;2023-02-03T16:34:13;0.60;;;0.60;;
41514;SDS011;27247;48.020;16.720;2023-02-03T16:38:44;2.78;;;0.95;;
41514;SDS011;27247;48.020;16.720;2023-02-03T16:43:17;1.27;;;0.77;;
41514;SDS011;27247;48.020;16.720;2023-02-03T16:47:46;1.77;;;0.90;;
41514;SDS011;27247;48.020;16.720;2023-02-03T16:52:15;1.52;;;1.00;;
41514;SDS011;27247;48.020;16.720;2023-02-03T16:56:25;1.65;;;0.80;;
41514;SDS011;27247;48.020;16.720;2023-02-03T17:00:36;7.75;;;3.38;;
41514;SDS011;27247;48.020;16.720;2023-02-03T17:04:50;5.90;;;2.90;;
41514;SDS011;27247;48.020;16.720;2023-02-03T17:09:00;3.72;;;2.03;;
41514;SDS011;27247;48.020;16.720;2023-02-03T17:13:11;3.05;;;1.70;;
41514;SDS011;27247;48.020;16.720;2023-02-03T17:17:21;3.63;;;1.50;;
41514;SDS011;27247;48.020;16.720;2023-02-03T17:21:32;3.45;;;1.60;;
41514;SDS011;27247;48.020;16.720;2023-02-03T17:25:43;3.42;;;1.88;;
41514;SDS011;27247;48.020;16.720;2023-02-03T17:29:55;3.20;;;1.58;;
41514;SDS011;27247;48.020;16.720;2023-02-03T17:34:05;1.60;;;1.13;;
41514;SDS011;27247;48.020;16.720;2023-02-03T17:38:16;3.38;;;1.35;;
41514;SDS011;27247;48.020;16.720;2023-02-03T17:42:26;2.40;;;1.30;;
41514;SDS011;27247;48.020;16.720;2023-02-03T17:46:37;2.60;;;1.80;;
41514;SDS011;27247;48.020;16.720;2023-02-03T17:50:47;1.60;;;1.10;;
41514;SDS011;27247;48.020;16.720;2023-02-03T17:54:58;1.85;;;1.40;;
41514;SDS011;27247;48.020;16.720;2023-02-03T17:59:08;1.67;;;1.30;;
41514;SDS011;27247;48.020;16.720;2023-02-03T18:03:19;2.40;;;1.70;;
41514;SDS011;27247;48.020;16.720;2023-02-03T18:07:29;1.17;;;0.98;;
41514;SDS011;27247;48.020;16.720;2023-02-03T18:11:40;2.47;;;1.40;;
41514;SDS011;27247;48.020;16.720;2023-02-03T18:15:54;3.97;;;2.60;;
41514;SDS011;27247;48.020;16.720;2023-02-03T18:20:05;5.10;;;2.80;;
41514;SDS011;27247;48.020;16.720;2023-02-03T18:24:16;6.75;;;1.95;;
41514;SDS011;27247;48.020;16.720;2023-02-03T18:28:29;1.60;;;1.33;;
41514;SDS011;27247;48.020;16.720;2023-02-03T18:32:40;3.85;;;2.10;;
41514;SDS011;27247;48.020;16.720;2023-02-03T18:36:50;3.88;;;1.60;;
41514;SDS011;27247;48.020;16.720;2023-02-03T18:41:36;4.68;;;1.80;;
41514;SDS011;27247;48.020;16.720;2023-02-03T18:45:41;3.25;;;2.40;;
41514;SDS011;27247;48.020;16.720;2023-02-03T18:49:52;2.00;;;1.10;;
41514;SDS011;27247;48.020;16.720;2023-02-03T18:54:05;1.52;;;1.20;;
41514;SDS011;27247;48.020;16.720;2023-02-03T18:58:17;1.92;;;1.20;;
41514;SDS011;27247;48.020;16.720;2023-02-03T19:02:27;3.70;;;1.60;;
41514;SDS011;27247;48.020;16.720;2023-02-03T19:06:38;3.13;;;1.75;;
41514;SDS011;27247;48.020;16.720;2023-02-03T19:10:54;2.30;;;2.10;;
41514;SDS011;27247;48.020;16.720;2023-02-03T19:15:05;5.20;;;1.73;;
41514;SDS011;27247;48.020;16.720;2023-02-03T19:19:16;2.80;;;2.15;;
41514;SDS011;27247;48.020;16.720;2023-02-03T19:23:29;4.30;;;1.70;;
41514;SDS011;27247;48.020;16.720;2023-02-03T19:27:40;3.53;;;1.00;;
41514;SDS011;27247;48.020;16.720;2023-02-03T19:31:51;1.13;;;1.05;;
41514;SDS011;27247;48.020;16.720;2023-02-03T19:36:03;1.23;;;0.70;;
41514;SDS011;27247;48.020;16.720;2023-02-03T19:40:15;0.93;;;0.63;;
41514;SDS011;27247;48.020;16.720;2023-02-03T19:44:26;7.35;;;1.58;;
41514;SDS011;27247;48.020;16.720;2023-02-03T19:48:37;6.22;;;0.77;;
41514;SDS011;27247;48.020;16.720;2023-02-03T19:52:48;2.30;;;0.82;;
41514;SDS011;27247;48.020;16.720;2023-02-03T19:56:59;4.45;;;1.08;;
41514;SDS011;27247;48.020;16.720;2023-02-03T20:01:11;1.92;;;1.10;;
41514;SDS011;27247;48.020;16.720;2023-02-03T20:05:23;19.85;;;6.10;;
41514;SDS011;27247;48.020;16.720;2023-02-03T20:09:36;11.20;;;3.72;;
41514;SDS011;27247;48.020;16.720;2023-02-03T20:13:47;5.07;;;2.35;;
41514;SDS011;27247;48.020;16.720;2023-02-03T20:17:58;2.40;;;2.20;;
41514;SDS011;27247;48.020;16.720;2023-02-03T20:22:09;6.20;;;1.33;;
41514;SDS011;27247;48.020;16.720;2023-02-03T20:26:20;2.60;;;1.00;;
41514;SDS011;27247;48.020;16.720;2023-02-03T20:30:31;1.95;;;0.90;;
41514;SDS011;27247;48.020;16.720;2023-02-03T20:34:42;1.65;;;0.77;;
41514;SDS011;27247;48.020;16.720;2023-02-03T20:38:53;4.68;;;0.80;;
41514;SDS011;27247;48.020;16.720;2023-02-03T20:43:07;3.22;;;1.00;;
41514;SDS011;27247;48.020;16.720;2023-02-03T20:47:25;1.23;;;0.95;;
41514;SDS011;27247;48.020;16.720;2023-02-03T20:51:35;4.20;;;1.10;;
41514;SDS011;27247;48.020;16.720;2023-02-03T20:55:47;5.07;;;1.45;;
41514;SDS011;27247;48.020;16.720;2023-02-03T20:59:58;3.95;;;1.48;;
41514;SDS011;27247;48.020;16.720;2023-02-03T21:04:14;2.55;;;1.45;;
41514;SDS011;27247;48.020;16.720;2023-02-03T21:08:45;4.28;;;1.83;;
41514;SDS011;27247;48.020;16.720;2023-02-03T21:12:57;2.83;;;1.10;;
41514;SDS011;27247;48.020;16.720;2023-02-03T21:17:19;3.38;;;1.17;;
41514;SDS011;27247;48.020;16.720;2023-02-03T21:21:36;5.80;;;1.55;;
41514;SDS011;27247;48.020;16.720;2023-02-03T21:25:49;4.65;;;1.58;;
41514;SDS011;27247;48.020;16.720;2023-02-03T21:30:21;3.97;;;1.70;;
41514;SDS011;27247;48.020;16.720;2023-02-03T21:34:42;4.22;;;1.40;;
41514;SDS011;27247;48.020;16.720;2023-02-03T21:39:07;10.68;;;2.42;;
41514;SDS011;27247;48.020;16.720;2023-02-03T21:43:54;6.68;;;1.63;;
41514;SDS011;27247;48.020;16.720;2023-02-03T21:52:32;11.10;;;2.13;;
41514;SDS011;27247;48.020;16.720;2023-02-03T21:56:43;7.82;;;1.80;;
41514;SDS011;27247;48.020;16.720;2023-02-03T22:00:55;6.50;;;2.13;;
41514;SDS011;27247;48.020;16.720;2023-02-03T22:05:13;8.57;;;1.60;;
41514;SDS011;27247;48.020;16.720;2023-02-03T22:09:25;8.20;;;2.58;;
41514;SDS011;27247;48.020;16.720;2023-02-03T22:13:36;7.20;;;2.00;;
41514;SDS011;27247;48.020;16.720;2023-02-03T22:17:47;10.68;;;2.15;;
41514;SDS011;27247;48.020;16.720;2023-02-03T22:21:58;14.65;;;2.15;;
41514;SDS011;27247;48.020;16.720;2023-02-03T22:26:09;7.82;;;1.73;;
41514;SDS011;27247;48.020;16.720;2023-02-03T22:30:20;8.82;;;2.83;;
41514;SDS011;27247;48.020;16.720;2023-02-03T22:34:30;8.40;;;1.80;;
41514;SDS011;27247;48.020;16.720;2023-02-03T22:38:41;7.20;;;2.38;;
41514;SDS011;27247;48.020;16.720;2023-02-03T22:42:52;7.50;;;2.55;;
41514;SDS011;27247;48.020;16.720;2023-02-03T22:47:02;10.50;;;2.30;;
41514;SDS011;27247;48.020;16.720;2023-02-03T22:51:13;6.60;;;1.58;;
41514;SDS011;27247;48.020;16.720;2023-02-03T22:55:23;7.88;;;1.63;;
41514;SDS011;27247;48.020;16.720;2023-02-03T22:59:34;4.40;;;1.60;;
41514;SDS011;27247;48.020;16.720;2023-02-03T23:03:44;5.80;;;1.25;;
41514;SDS011;27247;48.020;16.720;2023-02-03T23:07:54;5.78;;;1.58;;
41514;SDS011;27247;48.020;16.720;2023-02-03T23:12:05;7.15;;;1.42;;
41514;SDS011;27247;48.020;16.720;2023-02-03T23:16:15;5.88;;;1.85;;
41514;SDS011;27247;48.020;16.720;2023-02-03T23:20:25;7.57;;;1.90;;
41514;SDS011;27247;48.020;16.720;2023-02-03T23:24:36;8.98;;;1.67;;
41514;SDS011;27247;48.020;16.720;2023-02-03T23:28:46;9.77;;;1.73;;
41514;SDS011;27247;48.020;16.720;2023-02-03T23:32:57;3.07;;;1.63;;
41514;SDS011;27247;48.020;16.720;2023-02-03T23:37:07;11.48;;;3.60;;
41514;SDS011;27247;48.020;16.720;2023-02-03T23:41:17;12.57;;;1.70;;
41514;SDS011;27247;48.020;16.720;2023-02-03T23:45:28;7.53;;;1.80;;
41514;SDS011;27247;48.020;16.720;2023-02-03T23:49:38;8.57;;;1.77;;
41514;SDS011;27247;48.020;16.720;2023-02-03T23:53:48;7.43;;;1.58;;
41514;SDS011;27247;48.020;16.720;2023-02-03T23:57:59;7.30;;;2.10;;
